createdAt,value
2017-08-19T00:01:04.415Z,17.60
2017-08-19T00:03:32.680Z,17.60
2017-08-19T00:06:00.947Z,17.70
2017-08-19T00:08:28.426Z,17.70
2017-08-19T00:10:55.943Z,17.70
2017-08-19T00:13:23.445Z,17.70
2017-08-19T00:15:51.700Z,17.90
2017-08-19T00:18:19.201Z,17.90
2017-08-19T00:20:46.736Z,17.80
2017-08-19T00:23:14.291Z,17.80
2017-08-19T00:25:42.569Z,17.70
2017-08-19T00:28:10.849Z,17.60
2017-08-19T00:30:38.331Z,17.60
2017-08-19T00:33:05.827Z,17.70
2017-08-19T00:35:33.345Z,17.70
2017-08-19T00:38:00.898Z,17.70
2017-08-19T00:40:28.442Z,17.70
2017-08-19T00:42:56.700Z,17.50
2017-08-19T00:45:24.261Z,17.50
2017-08-19T00:47:57.564Z,17.50
2017-08-19T00:50:25.125Z,17.40
2017-08-19T00:52:53.371Z,17.30
2017-08-19T00:55:20.959Z,17.30
2017-08-19T00:57:48.531Z,17.30
2017-08-19T01:00:16.079Z,17.40
2017-08-19T01:02:43.581Z,17.30
2017-08-19T01:05:11.109Z,17.40
2017-08-19T01:07:39.352Z,17.30
2017-08-19T01:10:06.951Z,17.30
2017-08-19T01:12:34.495Z,17.40
2017-08-19T01:15:02.730Z,17.20
2017-08-19T01:17:30.352Z,17.10
2017-08-19T01:19:57.874Z,17.20
2017-08-19T01:22:25.455Z,17.00
2017-08-19T01:24:53.698Z,17.00
2017-08-19T01:27:21.204Z,17.00
2017-08-19T01:29:48.748Z,17.00
2017-08-19T01:32:17.750Z,17.10
2017-08-19T01:34:45.293Z,17.10
2017-08-19T01:37:12.858Z,17.20
2017-08-19T01:39:40.410Z,17.10
2017-08-19T01:42:08.676Z,17.10
2017-08-19T01:44:36.318Z,17.10
2017-08-19T01:47:03.831Z,17.10
2017-08-19T01:49:31.373Z,17.10
2017-08-19T01:52:00.582Z,17.20
2017-08-19T01:54:28.134Z,17.20
2017-08-19T01:56:55.674Z,17.10
2017-08-19T01:59:23.251Z,17.10
2017-08-19T02:01:51.521Z,17.10
2017-08-19T02:04:19.785Z,17.10
2017-08-19T02:06:47.355Z,17.10
2017-08-19T02:09:14.828Z,17.10
2017-08-19T02:11:42.316Z,17.00
2017-08-19T02:14:11.060Z,17.00
2017-08-19T02:16:39.331Z,17.00
2017-08-19T02:19:06.831Z,16.90
2017-08-19T02:21:34.352Z,17.00
2017-08-19T02:24:02.659Z,17.00
2017-08-19T02:26:30.198Z,16.90
2017-08-19T02:28:58.479Z,16.90
2017-08-19T02:31:26.028Z,16.80
2017-08-19T02:33:53.605Z,16.90
2017-08-19T02:36:21.148Z,16.80
2017-08-19T02:38:49.397Z,16.40
2017-08-19T02:41:16.879Z,16.40
2017-08-19T02:43:44.381Z,16.40
2017-08-19T02:46:11.899Z,16.50
2017-08-19T02:48:40.289Z,16.30
2017-08-19T02:51:07.845Z,16.30
2017-08-19T02:53:35.414Z,16.40
2017-08-19T02:56:02.895Z,16.40
2017-08-19T02:58:30.417Z,16.40
2017-08-19T03:00:57.889Z,16.30
2017-08-19T03:03:25.435Z,16.20
2017-08-19T03:05:53.693Z,16.40
2017-08-19T03:08:21.267Z,16.30
2017-08-19T03:10:49.539Z,16.30
2017-08-19T03:13:17.833Z,16.40
2017-08-19T03:15:45.375Z,16.30
2017-08-19T03:18:12.860Z,16.30
2017-08-19T03:20:40.378Z,16.30
2017-08-19T03:23:07.875Z,16.40
2017-08-19T03:25:35.383Z,16.40
2017-08-19T03:28:02.868Z,16.60
2017-08-19T03:30:30.425Z,16.10
2017-08-19T03:32:58.703Z,15.70
2017-08-19T03:35:26.950Z,15.70
2017-08-19T03:37:54.441Z,15.70
2017-08-19T03:40:22.714Z,15.80
2017-08-19T03:42:50.251Z,15.80
2017-08-19T03:45:17.834Z,15.70
2017-08-19T03:47:46.114Z,15.90
2017-08-19T03:50:14.487Z,16.10
2017-08-19T03:52:42.048Z,16.00
2017-08-19T03:55:09.594Z,16.00
2017-08-19T03:57:37.157Z,16.00
2017-08-19T04:00:04.659Z,16.00
2017-08-19T04:02:32.200Z,16.00
2017-08-19T04:04:59.754Z,15.90
2017-08-19T04:07:28.026Z,15.70
2017-08-19T04:09:56.289Z,15.80
2017-08-19T04:12:23.852Z,15.80
2017-08-19T04:14:51.398Z,15.80
2017-08-19T04:17:18.892Z,15.60
2017-08-19T04:19:46.435Z,15.70
2017-08-19T04:22:13.998Z,15.90
2017-08-19T04:24:42.247Z,15.80
2017-08-19T04:27:09.835Z,15.80
2017-08-19T04:29:38.108Z,15.80
2017-08-19T04:32:06.357Z,15.90
2017-08-19T04:34:33.843Z,15.90
2017-08-19T04:37:02.115Z,15.90
2017-08-19T04:39:30.385Z,16.00
2017-08-19T04:41:57.951Z,16.00
2017-08-19T04:44:25.496Z,15.90
2017-08-19T04:46:52.991Z,16.10
2017-08-19T04:49:20.524Z,16.00
2017-08-19T04:51:48.774Z,16.00
2017-08-19T04:54:16.294Z,16.10
2017-08-19T04:56:43.813Z,16.10
2017-08-19T04:59:12.107Z,16.10
2017-08-19T05:01:40.356Z,16.00
2017-08-19T05:04:07.932Z,16.00
2017-08-19T05:06:35.498Z,16.30
2017-08-19T05:09:02.985Z,16.30
2017-08-19T05:11:30.614Z,16.30
2017-08-19T05:13:58.115Z,16.00
2017-08-19T05:16:25.629Z,16.00
2017-08-19T05:18:53.911Z,16.20
2017-08-19T05:21:22.146Z,16.10
2017-08-19T05:23:49.627Z,16.10
2017-08-19T05:26:17.208Z,16.00
2017-08-19T05:28:44.695Z,15.90
2017-08-19T05:31:12.166Z,16.10
2017-08-19T05:33:39.678Z,16.20
2017-08-19T05:36:07.229Z,16.30
2017-08-19T05:38:34.791Z,16.30
2017-08-19T05:41:03.031Z,16.10
2017-08-19T05:43:37.843Z,16.10
2017-08-19T05:46:05.325Z,16.20
2017-08-19T05:48:32.913Z,16.10
2017-08-19T05:51:01.198Z,15.90
2017-08-19T05:53:29.458Z,15.80
2017-08-19T05:55:57.744Z,15.80
2017-08-19T05:58:25.302Z,15.80
2017-08-19T06:00:52.869Z,15.80
2017-08-19T06:03:21.142Z,16.20
2017-08-19T06:05:50.303Z,16.20
2017-08-19T06:08:17.909Z,16.10
2017-08-19T06:10:46.160Z,16.60
2017-08-19T06:13:13.739Z,16.60
2017-08-19T06:15:41.290Z,16.80
2017-08-19T06:18:08.869Z,16.80
2017-08-19T06:20:36.407Z,16.80
2017-08-19T06:23:10.729Z,16.50
2017-08-19T06:25:38.288Z,16.50
2017-08-19T06:28:05.858Z,16.40
2017-08-19T06:30:33.413Z,16.50
2017-08-19T06:33:01.680Z,16.20
2017-08-19T06:35:30.014Z,16.30
2017-08-19T06:37:57.508Z,16.30
2017-08-19T06:40:25.081Z,16.30
2017-08-19T06:42:52.569Z,16.40
2017-08-19T06:45:20.110Z,16.40
2017-08-19T06:47:48.382Z,16.30
2017-08-19T06:50:15.891Z,16.30
2017-08-19T06:52:43.387Z,16.60
2017-08-19T06:55:11.640Z,17.10
2017-08-19T06:57:39.120Z,17.00
2017-08-19T07:00:07.400Z,17.40
2017-08-19T07:02:35.676Z,17.40
2017-08-19T07:05:10.417Z,17.30
2017-08-19T07:07:37.924Z,17.30
2017-08-19T07:10:05.416Z,17.40
2017-08-19T07:12:33.694Z,17.40
2017-08-19T07:15:01.231Z,17.40
2017-08-19T07:17:28.724Z,17.30
2017-08-19T07:19:56.210Z,17.30
2017-08-19T07:22:23.728Z,17.40
2017-08-19T07:24:51.283Z,17.30
2017-08-19T07:27:19.575Z,17.20
2017-08-19T07:29:47.842Z,17.40
2017-08-19T07:32:15.333Z,17.40
2017-08-19T07:34:42.870Z,17.30
2017-08-19T07:37:11.121Z,17.40
2017-08-19T07:39:38.704Z,17.40
2017-08-19T07:42:06.204Z,17.30
2017-08-19T07:44:33.707Z,17.40
2017-08-19T07:47:01.281Z,17.40
2017-08-19T07:49:29.544Z,17.30
2017-08-19T07:51:57.803Z,17.30
2017-08-19T07:54:25.388Z,17.30
2017-08-19T07:56:53.052Z,17.30
2017-08-19T07:59:21.313Z,17.40
2017-08-19T08:01:48.881Z,17.50
2017-08-19T08:04:16.439Z,17.50
2017-08-19T08:06:43.997Z,17.50
2017-08-19T08:09:11.491Z,17.40
2017-08-19T08:11:39.029Z,17.40
2017-08-19T08:14:06.586Z,17.60
2017-08-19T08:16:34.132Z,17.60
2017-08-19T08:19:02.393Z,17.70
2017-08-19T08:21:29.891Z,17.70
2017-08-19T08:23:57.436Z,17.70
2017-08-19T08:26:25.698Z,18.00
2017-08-19T08:28:53.206Z,17.90
2017-08-19T08:31:20.687Z,18.00
2017-08-19T08:33:48.287Z,18.20
2017-08-19T08:36:15.764Z,18.20
2017-08-19T08:38:43.299Z,18.10
2017-08-19T08:41:10.864Z,18.00
2017-08-19T08:43:38.427Z,18.20
2017-08-19T08:46:06.707Z,18.00
2017-08-19T08:48:35.005Z,18.00
2017-08-19T08:51:02.543Z,18.00
2017-08-19T08:56:33.407Z,18.10
2017-08-19T08:59:00.921Z,18.00
2017-08-19T09:01:28.410Z,18.10
2017-08-19T09:03:55.965Z,18.30
2017-08-19T09:06:23.496Z,18.30
2017-08-19T09:08:51.022Z,18.70
2017-08-19T09:11:18.534Z,18.40
2017-08-19T09:13:46.815Z,18.30
2017-08-19T09:16:15.107Z,18.90
2017-08-19T09:18:42.616Z,18.90
2017-08-19T09:21:10.139Z,19.20
2017-08-19T09:23:37.689Z,19.70
2017-08-19T09:26:05.203Z,19.60
2017-08-19T09:28:32.711Z,19.40
2017-08-19T09:31:00.203Z,19.60
2017-08-19T09:33:27.701Z,19.70
2017-08-19T09:35:55.981Z,19.50
2017-08-19T09:38:24.247Z,19.60
2017-08-19T09:40:52.518Z,19.70
2017-08-19T09:43:20.781Z,19.60
2017-08-19T09:45:48.296Z,19.60
2017-08-19T09:48:15.791Z,19.40
2017-08-19T09:50:43.325Z,19.30
2017-08-19T09:53:10.814Z,19.30
2017-08-19T09:55:38.304Z,19.40
2017-08-19T09:58:06.568Z,19.10
2017-08-19T10:00:34.823Z,19.10
2017-08-19T10:03:03.158Z,19.10
2017-08-19T10:05:30.646Z,19.00
2017-08-19T10:07:58.158Z,19.00
2017-08-19T10:10:37.642Z,19.10
2017-08-19T10:13:05.130Z,19.10
2017-08-19T10:15:32.608Z,19.10
2017-08-19T10:18:00.116Z,19.50
2017-08-19T10:20:27.610Z,19.90
2017-08-19T10:22:55.877Z,20.10
2017-08-19T10:25:23.366Z,20.10
2017-08-19T10:27:50.865Z,20.20
2017-08-19T10:30:18.370Z,20.60
2017-08-19T10:32:46.633Z,20.80
2017-08-19T10:35:14.889Z,20.70
2017-08-19T10:37:42.387Z,20.70
2017-08-19T10:40:09.896Z,20.70
2017-08-19T10:42:37.412Z,20.60
2017-08-19T10:45:04.910Z,20.30
2017-08-19T10:47:32.430Z,20.20
2017-08-19T10:52:55.921Z,19.90
2017-08-19T10:55:23.415Z,19.70
2017-08-19T10:57:50.907Z,19.60
2017-08-19T11:00:18.411Z,19.30
2017-08-19T11:02:45.891Z,19.20
2017-08-19T11:05:13.413Z,19.30
2017-08-19T11:07:40.916Z,19.60
2017-08-19T11:10:08.398Z,19.80
2017-08-19T11:12:36.647Z,20.10
2017-08-19T11:15:04.147Z,20.10
2017-08-19T11:17:32.393Z,20.30
2017-08-19T11:19:59.910Z,20.30
2017-08-19T11:22:27.401Z,20.50
2017-08-19T11:24:54.906Z,20.40
2017-08-19T11:27:22.400Z,20.60
2017-08-19T11:29:49.900Z,20.80
2017-08-19T11:32:18.171Z,21.00
2017-08-19T11:34:46.445Z,21.00
2017-08-19T11:37:13.939Z,20.90
2017-08-19T11:39:42.898Z,20.90
2017-08-19T11:42:10.381Z,20.80
2017-08-19T11:44:37.891Z,20.60
2017-08-19T11:47:05.394Z,20.50
2017-08-19T11:49:32.881Z,20.30
2017-08-19T11:52:00.390Z,20.40
2017-08-19T11:54:28.661Z,20.70
2017-08-19T11:56:56.185Z,20.70
2017-08-19T11:59:24.390Z,20.90
2017-08-19T12:01:51.914Z,20.90
2017-08-19T12:04:19.406Z,20.70
2017-08-19T12:06:46.903Z,20.60
2017-08-19T12:09:14.391Z,20.70
2017-08-19T12:11:41.894Z,20.80
2017-08-19T12:14:09.383Z,20.70
2017-08-19T12:16:36.888Z,20.80
2017-08-19T12:19:04.385Z,21.20
2017-08-19T12:21:32.641Z,21.50
2017-08-19T12:24:00.922Z,21.20
2017-08-19T12:26:29.236Z,21.20
2017-08-19T12:28:56.712Z,21.20
2017-08-19T12:31:24.225Z,21.20
2017-08-19T12:33:52.478Z,21.20
2017-08-19T12:36:19.973Z,21.20
2017-08-19T12:38:47.468Z,21.40
2017-08-19T12:41:14.975Z,21.40
2017-08-19T12:43:44.162Z,21.50
2017-08-19T12:46:11.641Z,21.30
2017-08-19T12:48:39.134Z,21.40
2017-08-19T12:51:06.635Z,21.80
2017-08-19T12:53:34.178Z,22.00
2017-08-19T12:56:01.680Z,21.80
2017-08-19T12:58:29.181Z,21.60
2017-08-19T13:01:13.975Z,20.90
2017-08-19T13:03:41.475Z,20.80
2017-08-19T13:06:08.987Z,20.80
2017-08-19T13:08:36.486Z,20.40
2017-08-19T13:11:03.964Z,20.40
2017-08-19T13:13:31.478Z,20.50
2017-08-19T13:15:58.972Z,20.40
2017-08-19T13:18:26.472Z,20.60
2017-08-19T13:20:53.958Z,20.80
2017-08-19T13:23:21.461Z,21.00
2017-08-19T13:25:48.957Z,21.10
2017-08-19T13:28:17.246Z,21.10
2017-08-19T13:30:44.720Z,21.10
2017-08-19T13:33:12.202Z,20.90
2017-08-19T13:35:39.687Z,21.10
2017-08-19T13:38:07.181Z,20.90
2017-08-19T13:40:34.678Z,21.00
2017-08-19T13:43:02.176Z,21.10
2017-08-19T13:45:30.463Z,20.90
2017-08-19T13:47:58.722Z,20.60
2017-08-19T13:50:26.215Z,20.60
2017-08-19T13:52:53.707Z,20.50
2017-08-19T13:55:21.206Z,20.60
2017-08-19T13:57:48.781Z,20.60
2017-08-19T14:00:16.281Z,20.50
2017-08-19T14:02:43.766Z,20.60
2017-08-19T14:05:11.268Z,20.50
2017-08-19T14:07:38.743Z,20.50
2017-08-19T14:10:10.024Z,20.50
2017-08-19T14:12:40.758Z,20.60
2017-08-19T14:15:08.351Z,20.70
2017-08-19T14:17:36.598Z,20.40
2017-08-19T14:20:04.087Z,20.40
2017-08-19T14:22:32.361Z,20.60
2017-08-19T14:24:59.851Z,20.60
2017-08-19T14:27:28.275Z,20.40
2017-08-19T14:29:55.750Z,20.30
2017-08-19T14:32:23.243Z,20.50
2017-08-19T14:34:50.740Z,20.40
2017-08-19T14:37:18.263Z,20.40
2017-08-19T14:39:45.752Z,20.60
2017-08-19T14:42:13.244Z,20.70
2017-08-19T14:44:41.514Z,20.50
2017-08-19T14:47:09.035Z,20.50
2017-08-19T14:49:36.535Z,20.60
2017-08-19T14:52:04.029Z,20.80
2017-08-19T14:54:31.529Z,21.00
2017-08-19T14:56:59.044Z,21.20
2017-08-19T14:59:26.527Z,21.40
2017-08-19T15:01:54.070Z,21.40
2017-08-19T15:04:21.575Z,21.30
2017-08-19T15:06:49.846Z,21.00
2017-08-19T15:09:17.343Z,21.00
2017-08-19T15:11:44.834Z,20.70
2017-08-19T15:14:12.351Z,20.70
2017-08-19T15:16:39.855Z,20.90
2017-08-19T15:19:07.375Z,20.90
2017-08-19T15:21:34.870Z,21.10
2017-08-19T15:24:02.364Z,21.00
2017-08-19T15:26:29.853Z,21.00
2017-08-19T15:28:57.343Z,21.00
2017-08-19T15:31:24.823Z,20.90
2017-08-19T15:34:06.904Z,21.00
2017-08-19T15:36:41.218Z,20.60
2017-08-19T15:39:08.744Z,20.60
2017-08-19T15:41:36.238Z,20.60
2017-08-19T15:44:03.751Z,20.70
2017-08-19T15:46:31.232Z,20.90
2017-08-19T15:48:58.732Z,21.20
2017-08-19T15:51:26.220Z,21.50
2017-08-19T15:53:53.723Z,21.90
2017-08-19T15:56:21.198Z,21.90
2017-08-19T15:58:48.701Z,21.80
2017-08-19T16:01:16.189Z,21.50
2017-08-19T16:03:43.683Z,21.40
2017-08-19T16:06:11.346Z,21.20
2017-08-19T16:08:38.856Z,21.10
2017-08-19T16:11:06.336Z,21.30
2017-08-19T16:13:33.818Z,21.60
2017-08-19T16:16:01.311Z,21.90
2017-08-19T16:18:28.796Z,21.80
2017-08-19T16:20:56.286Z,21.60
2017-08-19T16:23:23.766Z,21.60
2017-08-19T16:25:51.263Z,21.50
2017-08-19T16:28:18.744Z,21.40
2017-08-19T16:30:46.227Z,21.30
2017-08-19T16:33:13.707Z,21.10
2017-08-19T16:35:41.202Z,21.10
2017-08-19T16:38:08.678Z,21.50
2017-08-19T16:40:36.174Z,22.20
2017-08-19T16:43:04.431Z,24.10
2017-08-19T16:45:31.922Z,24.10
2017-08-19T16:47:59.406Z,25.10
2017-08-19T16:50:26.893Z,26.00
2017-08-19T16:52:54.374Z,26.60
2017-08-19T16:55:22.643Z,27.00
2017-08-19T16:57:50.130Z,27.00
2017-08-19T17:00:17.634Z,27.20
2017-08-19T17:02:45.119Z,27.60
2017-08-19T17:05:12.611Z,27.90
2017-08-19T17:07:40.105Z,27.60
2017-08-19T17:10:07.603Z,28.20
2017-08-19T17:12:35.866Z,27.60
2017-08-19T17:15:03.339Z,27.60
2017-08-19T17:17:31.601Z,27.80
2017-08-19T17:19:59.079Z,27.70
2017-08-19T17:22:27.341Z,25.50
2017-08-19T17:24:54.859Z,25.40
2017-08-19T17:27:22.392Z,23.50
2017-08-19T17:29:49.874Z,22.70
2017-08-19T17:32:17.363Z,21.80
2017-08-19T17:34:44.851Z,21.50
2017-08-19T17:37:12.334Z,21.10
2017-08-19T17:39:39.820Z,20.90
2017-08-19T17:42:07.319Z,20.60
2017-08-19T17:44:35.589Z,20.10
2017-08-19T17:47:03.127Z,20.10
2017-08-19T17:49:30.616Z,19.90
2017-08-19T17:51:58.100Z,19.60
2017-08-19T17:54:25.597Z,19.50
2017-08-19T17:56:53.074Z,19.40
2017-08-19T17:59:25.970Z,19.40
2017-08-19T18:01:54.223Z,19.10
2017-08-19T18:04:21.798Z,19.10
2017-08-19T18:06:50.052Z,19.10
2017-08-19T18:09:17.544Z,19.00
2017-08-19T18:11:45.786Z,18.80
2017-08-19T18:14:13.282Z,18.80
2017-08-19T18:16:40.762Z,18.70
2017-08-19T18:19:08.267Z,18.60
2017-08-19T18:21:35.758Z,18.50
2017-08-19T18:24:04.057Z,18.30
2017-08-19T18:26:31.555Z,18.30
2017-08-19T18:28:59.055Z,18.20
2017-08-19T18:31:26.545Z,18.10
2017-08-19T18:33:54.049Z,18.00
2017-08-19T18:36:21.534Z,18.00
2017-08-19T18:38:49.035Z,18.10
2017-08-19T18:41:17.369Z,18.00
2017-08-19T18:43:44.875Z,17.90
2017-08-19T18:46:12.355Z,18.00
2017-08-19T18:48:40.632Z,17.80
2017-08-19T18:51:08.879Z,17.70
2017-08-19T18:53:36.365Z,17.70
2017-08-19T18:56:04.639Z,17.60
2017-08-19T18:58:32.121Z,17.60
2017-08-19T19:00:59.672Z,17.50
2017-08-19T19:03:27.351Z,17.40
2017-08-19T19:05:54.847Z,17.30
2017-08-19T19:08:22.328Z,17.30
2017-08-19T19:10:49.827Z,17.30
2017-08-19T19:13:17.336Z,17.30
2017-08-19T19:15:44.844Z,17.30
2017-08-19T19:18:12.328Z,17.10
2017-08-19T19:20:39.827Z,16.90
2017-08-19T19:23:07.316Z,16.90
2017-08-19T19:25:34.816Z,16.90
2017-08-19T19:28:02.356Z,16.80
2017-08-19T19:30:30.871Z,16.70
2017-08-19T19:32:58.351Z,16.60
2017-08-19T19:35:25.863Z,16.60
2017-08-19T19:37:53.363Z,16.60
2017-08-19T19:40:21.650Z,16.50
2017-08-19T19:42:49.125Z,16.40
2017-08-19T19:45:16.618Z,16.30
2017-08-19T19:47:44.111Z,16.20
2017-08-19T19:50:11.601Z,16.10
2017-08-19T19:52:39.103Z,16.10
2017-08-19T19:55:06.592Z,16.10
2017-08-19T19:57:34.090Z,16.10
2017-08-19T20:00:01.590Z,15.90
2017-08-19T20:02:29.095Z,15.90
2017-08-19T20:04:56.578Z,15.90
2017-08-19T20:07:24.087Z,15.80
2017-08-19T20:09:51.587Z,15.70
2017-08-19T20:12:19.091Z,15.70
2017-08-19T20:14:46.695Z,15.50
2017-08-19T20:17:14.251Z,15.40
2017-08-19T20:19:41.733Z,15.40
2017-08-19T20:22:09.247Z,15.30
2017-08-19T20:24:36.742Z,15.30
2017-08-19T20:27:04.254Z,15.40
2017-08-19T20:29:31.756Z,15.50
2017-08-19T20:31:59.239Z,15.40
2017-08-19T20:34:26.756Z,15.30
2017-08-19T20:36:54.242Z,15.20
2017-08-19T20:39:21.730Z,15.10
2017-08-19T20:41:49.234Z,15.00
2017-08-19T20:44:16.743Z,15.10
2017-08-19T20:46:44.225Z,14.90
2017-08-19T20:49:12.485Z,14.60
2017-08-19T20:51:40.730Z,14.60
2017-08-19T20:54:08.590Z,14.60
2017-08-19T20:56:36.076Z,14.50
2017-08-19T20:59:03.662Z,14.40
2017-08-19T21:01:31.933Z,14.40
2017-08-19T21:03:59.431Z,14.40
2017-08-19T21:06:26.904Z,14.50
2017-08-19T21:08:54.403Z,14.70
2017-08-19T21:11:22.672Z,14.80
2017-08-19T21:13:50.172Z,14.70
2017-08-19T21:16:17.655Z,14.70
2017-08-19T21:18:45.159Z,14.80
2017-08-19T21:21:13.447Z,14.80
2017-08-19T21:23:40.946Z,14.80
2017-08-19T21:26:08.468Z,14.70
2017-08-19T21:28:35.957Z,14.60
2017-08-19T21:31:03.441Z,14.50
2017-08-19T21:33:30.926Z,14.40
2017-08-19T21:35:59.203Z,14.50
2017-08-19T21:38:27.461Z,14.50
2017-08-19T21:40:54.971Z,14.50
2017-08-19T21:43:22.448Z,14.40
2017-08-19T21:45:49.941Z,14.40
2017-08-19T21:48:17.418Z,14.40
2017-08-19T21:50:44.924Z,14.40
2017-08-19T21:53:12.406Z,14.40
2017-08-19T21:55:39.920Z,14.40
2017-08-19T21:58:07.403Z,14.50
2017-08-19T22:00:34.914Z,14.30
2017-08-19T22:03:02.404Z,14.30
2017-08-19T22:05:29.895Z,14.30
2017-08-19T22:07:57.374Z,14.20
2017-08-19T22:10:25.631Z,14.20
2017-08-19T22:12:54.225Z,14.30
2017-08-19T22:15:21.734Z,14.20
2017-08-19T22:17:49.223Z,14.00
2017-08-19T22:20:16.735Z,14.10
2017-08-19T22:22:44.211Z,14.00
2017-08-19T22:25:11.690Z,14.10
2017-08-19T22:27:39.177Z,14.10
2017-08-19T22:30:06.659Z,14.10
2017-08-19T22:32:34.207Z,14.00
2017-08-19T22:35:01.679Z,13.80
2017-08-19T22:37:29.169Z,13.90
2017-08-19T22:39:56.641Z,13.90
2017-08-19T22:42:24.134Z,13.90
2017-08-19T22:44:52.396Z,14.00
2017-08-19T22:47:19.887Z,14.00
2017-08-19T22:49:48.335Z,14.10
2017-08-19T22:52:15.836Z,14.00
2017-08-19T22:54:43.338Z,14.00
2017-08-19T22:57:10.872Z,14.00
2017-08-19T22:59:38.387Z,14.00
2017-08-19T23:02:05.869Z,13.90
2017-08-19T23:04:33.361Z,13.90
2017-08-19T23:07:00.834Z,13.90
2017-08-19T23:09:28.323Z,14.00
2017-08-19T23:11:55.844Z,14.10
2017-08-19T23:14:23.318Z,14.10
2017-08-19T23:16:51.570Z,14.10
2017-08-19T23:19:19.097Z,14.10
2017-08-19T23:21:46.582Z,14.10
2017-08-19T23:24:14.067Z,14.10
2017-08-19T23:26:42.316Z,14.10
2017-08-19T23:29:09.806Z,14.10
2017-08-19T23:31:37.358Z,14.00
2017-08-19T23:34:04.859Z,14.00
2017-08-19T23:36:32.337Z,14.10
2017-08-19T23:38:59.842Z,14.20
2017-08-19T23:41:27.348Z,14.10
2017-08-19T23:43:54.835Z,14.10
2017-08-19T23:46:22.368Z,14.00
2017-08-19T23:48:49.859Z,14.00
2017-08-19T23:51:17.361Z,14.00
2017-08-19T23:53:44.833Z,13.90
2017-08-19T23:56:15.706Z,13.80
2017-08-19T23:58:43.174Z,13.70
